• Join FlightAware (Why Join?)
  • Login
  • US Flag 
11:15AM EDT


 

Airport Tracker/Info


-or-


 

Live Flight TrackerFlight Track Log ✈ N30GT ✈ 30-Apr-2013 ✈ KAAF - KGMU

Flight Track Log - Related Links

Times and Time Zones

All times are in EDT time to prevent confusion due to time zone crossing. See the N30GT flight status page for this flight to view local times or setup timezone preferences in your user account.

Time Position Orientation Groundspeed Altitude Reporting Facility
EDT Latitude Longitude Course Direction KTS MPH feet Rate Location/Type
03:26PM 30.0863 -84.8559 20° North  Level FlightAware Approximate
03:27PM 30.1384 -84.8308 23° Northeast  Level FlightAware Approximate
03:27PM 30.0961 -84.7653 23° Northeast 209 241 14,400  Level Jacksonville Center
03:28PM 30.1903 -84.8049 23° Northeast  Level FlightAware Approximate
03:28PM 30.1489 -84.7375 24° Northeast 209 241 15,400  Level Jacksonville Center
03:29PM 30.2421 -84.7790 23° Northeast  Level FlightAware Approximate
03:29PM 30.2014 -84.7144 21° North 199 229 16,300  Level Jacksonville Center
03:30PM 30.2953 -84.7607 23° Northeast  Level FlightAware Approximate
03:30PM 30.2558 -84.6961 16° North 194 223 17,300  Level Jacksonville Center
03:31PM 30.3471 -84.7348 23° Northeast  Level FlightAware Approximate
03:31PM 30.3083 -84.6683 25° Northeast 194 223 17,900  Level Jacksonville Center
03:32PM 30.3990 -84.7089 23° Northeast  Level FlightAware Approximate
03:32PM 30.3631 -84.6356 27° Northeast 199 229 18,600  Level Jacksonville Center
03:33PM 30.4200 -84.6100 21° North 204 235 19,200 600 Climbing Jacksonville Center
03:34PM 30.4786 -84.5919 15° North 209 241 19,800 600 Climbing Jacksonville Center
03:35PM 30.5372 -84.5761 13° North 214 246 20,400 480 Climbing Jacksonville Center
03:36PM 30.5981 -84.5603 13° North 214 246 20,800 360 Climbing Jacksonville Center
03:37PM 30.6547 -84.5372 19° North 214 246 21,200 300 Climbing Jacksonville Center
03:38PM 30.7156 -84.5164 16° North 219 252 21,500 300 Climbing Jacksonville Center
03:39PM 30.7783 -84.5006 12° North 219 252 21,800 240 Climbing Jacksonville Center
03:40PM 30.8436 -84.4678 23° Northeast 224 258 22,000 240 Climbing Jacksonville Center
03:41PM 30.9064 -84.4494 14° North 229 264 22,300 240 Climbing Jacksonville Center
03:42PM 30.9672 -84.4286 16° North 229 264 22,500 180 Climbing Jacksonville Center
03:43PM 31.0300 -84.4053 18° North 229 264 22,700 240 Climbing Jacksonville Center
03:44PM 31.0889 -84.3797 20° North 224 258 23,000 120 Climbing Jacksonville Center
03:45PM 31.1497 -84.3467 25° Northeast 229 264 23,000  Level Jacksonville Center
03:46PM 31.2106 -84.3136 25° Northeast 235 270 23,000  Level Jacksonville Center
03:47PM 31.2717 -84.2828 23° Northeast 235 270 23,000  Level Jacksonville Center
03:48PM 31.3344 -84.2497 24° Northeast 235 270 23,000  Level Jacksonville Center
03:49PM 31.3975 -84.2167 24° Northeast 235 270 23,000  Level Jacksonville Center
03:50PM 31.4583 -84.1883 22° Northeast 235 270 23,000  Level Jacksonville Center
03:52PM 31.5881 -84.1217 24° Northeast 248 285 23,000  Level Atlanta Center
03:53PM 31.6486 -84.0900 24° Northeast 248 285 23,000  Level Atlanta Center
03:54PM 31.7111 -84.0583 23° Northeast 248 285 23,000  Level Atlanta Center
03:55PM 31.7717 -84.0242 26° Northeast 242 278 23,000  Level Atlanta Center
03:56PM 31.8342 -83.9925 23° Northeast 242 278 23,000  Level Atlanta Center
03:57PM 31.8947 -83.9606 24° Northeast 237 273 23,000  Level Atlanta Center
03:58PM 31.9572 -83.9264 25° Northeast 237 273 23,000  Level Atlanta Center
03:59PM 32.0178 -83.8944 24° Northeast 237 273 23,000  Level Atlanta Center
04:00PM 32.0806 -83.8600 25° Northeast 237 273 23,000  Level Atlanta Center
04:01PM 32.1450 -83.8278 23° Northeast 237 273 23,000  Level Atlanta Center
04:02PM 32.2056 -83.7958 24° Northeast 237 273 23,000  Level Atlanta Center
04:03PM 32.2681 -83.7636 24° Northeast 237 273 23,000  Level Atlanta Center
04:04PM 32.3306 -83.7292 25° Northeast 237 273 23,000  Level Atlanta Center
04:05PM 32.3911 -83.6969 24° Northeast 237 273 23,000  Level Atlanta Center
04:06PM 32.4536 -83.6622 25° Northeast 237 273 23,000  Level Atlanta Center
04:07PM 32.5161 -83.6325 22° Northeast 237 273 23,000  Level Atlanta Center
04:08PM 32.5786 -83.6000 24° Northeast 237 273 23,000  Level Atlanta Center
04:09PM 32.6328 -83.5703 25° Northeast 237 273 23,000  Level Atlanta Center
04:10PM 32.6931 -83.5353 26° Northeast 237 273 23,000  Level Atlanta Center
04:11PM 32.7556 -83.5028 24° Northeast 237 273 23,000  Level Atlanta Center
04:12PM 32.8181 -83.4728 22° Northeast 237 273 23,000  Level Atlanta Center
04:13PM 32.8806 -83.4378 25° Northeast 237 273 23,000  Level Atlanta Center
04:14PM 32.9431 -83.4050 24° Northeast 237 273 23,000  Level Atlanta Center
04:15PM 33.0033 -83.3725 24° Northeast 237 273 23,000  Level Atlanta Center
04:16PM 33.0658 -83.3372 25° Northeast 237 273 23,000  Level Atlanta Center
04:17PM 33.1261 -83.3047 24° Northeast 237 273 23,000  Level Atlanta Center
04:18PM 33.1886 -83.2694 25° Northeast 237 273 23,000  Level Atlanta Center
04:19PM 33.2489 -83.2364 25° Northeast 232 267 23,000  Level Atlanta Center
04:20PM 33.3092 -83.2036 24° Northeast 238 274 23,000  Level Atlanta Center
04:21PM 33.3758 -83.1681 24° Northeast 238 274 23,000  Level Atlanta Center
04:22PM 33.4381 -83.1328 25° Northeast 243 280 23,000  Level Atlanta Center
04:23PM 33.4983 -83.0997 25° Northeast 237 273 23,000  Level Atlanta Center
04:24PM 33.5586 -83.0667 25° Northeast 237 273 23,000 -360 Level Atlanta Center
04:25PM 33.6211 -83.0333 24° Northeast 237 273 22,300 -900 Descending Atlanta Center
04:26PM 33.6897 -82.9953 25° Northeast 251 289 21,300 -1,140 Descending Atlanta Center
04:27PM 33.7581 -82.9569 25° Northeast 266 306 20,100 -1,380 Descending Atlanta Center
04:28PM 33.8289 -82.9186 24° Northeast 271 312 18,600 -1,500 Descending Atlanta Center
04:29PM 33.9056 -82.8775 24° Northeast 276 318 17,200 -1,320 Descending Atlanta Center
04:30PM 33.9783 -82.8389 24° Northeast 276 318 16,000 -1,140 Descending Atlanta Center
04:31PM 34.0489 -82.7978 26° Northeast 276 318 15,000 -900 Descending Atlanta Center
04:32PM 34.1133 -82.7642 23° Northeast 270 311 14,200 -960 Descending Atlanta Center
04:33PM 34.1858 -82.7256 24° Northeast 273 314 13,100 -1,200 Descending Atlanta Center
04:34PM 34.2544 -82.6892 24° Northeast 273 314 11,800 -1,080 Descending Atlanta Center
04:35PM 34.3164 -82.6481 29° Northeast 263 303 11,000 -420 Descending Atlanta Center
04:36PM 34.3767 -82.6167 23° Northeast 250 288 11,000 -240 Level Atlanta Center
04:37PM 34.4514 -82.5753 25° Northeast 248 285 10,600 -1,080 Descending Atlanta Center
04:38PM 34.5072 -82.5414 27° Northeast 234 269 8,900 -1,680 Descending Atlanta Center
04:39PM 34.5672 -82.5075 25° Northeast 234 269 7,300 -1,620 Descending Atlanta Center
04:40PM 34.6233 -82.4789 23° Northeast 234 269 5,700 -1,560 Descending Atlanta Center
04:41PM 34.6814 -82.4475 24° Northeast 234 269 4,200 -1,380 Descending Atlanta Center
04:42PM 34.7353 -82.4136 27° Northeast 229 264 3,000 -1,200 Descending Atlanta Center
04:44PM 34.8143 -82.3595 22° Northeast  Level FlightAware Approximate
04:51PM 34.8333 -82.3500 22° Northeast  Level FlightAware Approximate
04:52PM 34.8479 -82.3500 22° Northeast  Level Estimated
04:53PM 34.8479 -82.3500 22° Northeast  Level Estimated
04:54PM 34.8479 -82.3500 22° Northeast  Level Estimated
04:55PM 34.8479 -82.3500 22° Northeast  Level Estimated